Time;durP1;ratioP1;P1;durP2;ratioP2;P2;SDS_P1;SDS_P2;PMS_P1;PMS_P2;Temp;Humidity;BMP_temperature;BMP_pressure;BME280_temperature;BME280_humidity;BME280_pressure;Samples;Min_cycle;Max_cycle;Signal;HPM_P1;HPM_P2
2022/09/20 00:00:44;;;;;;;1.75;1.10;;;;;;;10.99;100.00;100374.06;5102957;28;20424;-66
2022/09/20 00:03:11;;;;;;;1.40;1.30;;;;;;;10.97;100.00;100381.44;5103261;28;20502;-65
2022/09/20 00:05:38;;;;;;;2.95;1.38;;;;;;;10.80;100.00;100369.50;5103240;28;20544;-66
2022/09/20 00:08:05;;;;;;;1.48;1.02;;;;;;;10.85;100.00;100388.72;5103508;28;20089;-65
2022/09/20 00:10:34;;;;;;;1.52;1.42;;;;;;;10.78;100.00;100376.00;5101564;28;20019;-66
2022/09/20 00:13:01;;;;;;;1.80;1.38;;;;;;;10.77;100.00;100383.19;5102978;28;20027;-66
2022/09/20 00:15:27;;;;;;;1.30;1.10;;;;;;;10.79;100.00;100383.91;5102326;28;20471;-70
2022/09/20 00:17:52;;;;;;;1.83;1.27;;;;;;;10.81;100.00;100378.41;5102803;28;20038;-70
2022/09/20 00:20:18;;;;;;;2.38;1.40;;;;;;;10.89;100.00;100381.25;5103413;28;20459;-67
2022/09/20 00:22:43;;;;;;;1.88;1.50;;;;;;;10.81;100.00;100373.88;5102567;28;20061;-70
2022/09/20 00:25:09;;;;;;;1.95;1.30;;;;;;;10.71;100.00;100369.47;5103565;28;20035;-70
2022/09/20 00:27:34;;;;;;;2.50;1.40;;;;;;;10.71;100.00;100362.25;5103588;28;20536;-70
2022/09/20 00:30:00;;;;;;;2.28;1.20;;;;;;;10.67;100.00;100358.13;5103004;28;20031;-70
2022/09/20 00:32:25;;;;;;;2.33;1.40;;;;;;;10.72;100.00;100368.47;5103106;28;20024;-71
2022/09/20 00:35:06;;;;;;;3.10;2.28;;;;;;;10.69;100.00;100374.97;5103039;28;20110;-70
2022/09/20 00:37:36;;;;;;;4.10;1.73;;;;;;;10.69;100.00;100372.28;5103141;28;20487;-70
2022/09/20 00:40:04;;;;;;;2.75;1.52;;;;;;;10.62;100.00;100363.06;5102617;28;20027;-71
2022/09/20 00:42:31;;;;;;;2.38;1.30;;;;;;;10.69;100.00;100374.09;5103231;28;20040;-71
2022/09/20 00:45:04;;;;;;;6.07;1.38;;;;;;;10.77;100.00;100374.28;5102171;28;20039;-71
2022/09/20 00:47:36;;;;;;;2.47;1.63;;;;;;;10.78;100.00;100365.25;5106017;28;21568;-70
2022/09/20 00:50:39;;;;;;;3.70;1.40;;;;;;;10.83;100.00;100365.69;5105333;28;20107;-69
2022/09/20 00:53:11;;;;;;;3.95;1.60;;;;;;;10.84;100.00;100365.56;5101357;28;20039;-70
2022/09/20 00:55:41;;;;;;;2.72;1.70;;;;;;;10.81;100.00;100365.81;5107363;28;20888;-69
2022/09/20 00:58:08;;;;;;;3.08;1.55;;;;;;;10.85;100.00;100369.94;5106862;28;20024;-71
2022/09/20 01:00:34;;;;;;;4.45;1.80;;;;;;;10.81;100.00;100357.75;5106798;28;20030;-70
2022/09/20 01:03:04;;;;;;;2.65;1.50;;;;;;;10.84;100.00;100367.41;5106280;28;20034;-70
2022/09/20 01:05:29;;;;;;;2.95;1.55;;;;;;;10.79;100.00;100359.75;5106849;28;20119;-70
2022/09/20 01:07:56;;;;;;;4.20;1.83;;;;;;;10.78;100.00;100366.13;5105363;28;20421;-71
2022/09/20 01:10:21;;;;;;;2.72;1.20;;;;;;;10.77;100.00;100371.63;5106374;28;20043;-70
2022/09/20 01:12:50;;;;;;;1.95;1.50;;;;;;;10.73;100.00;100365.66;5106392;28;20035;-71
2022/09/20 01:15:17;;;;;;;2.58;1.50;;;;;;;10.69;100.00;100358.00;5106314;28;20127;-70
2022/09/20 01:17:47;;;;;;;2.53;1.35;;;;;;;10.70;100.00;100362.38;5105036;28;20471;-71
2022/09/20 01:20:16;;;;;;;2.17;1.60;;;;;;;10.80;100.00;100364.13;5105645;28;20024;-70
2022/09/20 01:23:09;;;;;;;1.50;1.30;;;;;;;10.82;100.00;100364.84;5105016;28;20039;-71
2022/09/20 01:25:59;;;;;;;4.40;1.58;;;;;;;10.84;100.00;100365.56;5105897;28;20548;-70
2022/09/20 01:28:27;;;;;;;3.33;1.63;;;;;;;10.83;100.00;100365.69;5103134;28;20031;-70
2022/09/20 01:31:15;;;;;;;2.95;1.60;;;;;;;10.83;100.00;100365.69;5105862;28;20028;-71
2022/09/20 01:33:57;;;;;;;2.13;1.50;;;;;;;10.81;100.00;100365.81;5102323;28;20467;-70
2022/09/20 01:36:24;;;;;;;3.78;1.88;;;;;;;10.76;100.00;100359.16;5104785;28;20031;-70
2022/09/20 01:39:22;;;;;;;4.05;1.70;;;;;;;10.63;100.00;100364.75;5104181;28;20062;-70
2022/09/20 01:42:00;;;;;;;2.42;1.70;;;;;;;10.65;100.00;100361.94;5088892;28;20142;-70
2022/09/20 01:44:45;;;;;;;2.85;1.75;;;;;;;10.59;100.00;100360.66;5104192;28;20039;-70
2022/09/20 01:47:22;;;;;;;3.15;1.70;;;;;;;10.67;100.00;100365.31;5104801;28;20032;-71
2022/09/20 01:50:14;;;;;;;2.75;1.48;;;;;;;10.81;100.00;100368.50;5101971;28;20039;-71
2022/09/20 01:53:09;;;;;;;3.72;2.20;;;;;;;10.78;100.00;100376.84;5104026;28;20031;-71
2022/09/20 01:55:49;;;;;;;3.42;2.22;;;;;;;10.71;100.00;100375.66;5105091;28;20092;-70
2022/09/20 01:58:31;;;;;;;7.55;3.20;;;;;;;10.63;100.00;100372.81;5106080;28;20488;-70
2022/09/20 02:01:25;;;;;;;5.82;2.75;;;;;;;10.53;100.00;100379.09;5105800;28;20050;-70
2022/09/20 02:04:18;;;;;;;6.43;2.85;;;;;;;10.47;100.00;100376.94;5105407;28;20043;-71
2022/09/20 02:06:46;;;;;;;7.45;3.10;;;;;;;10.44;100.00;100377.19;5105230;28;20088;-70
2022/09/20 02:09:37;;;;;;;7.05;3.80;;;;;;;10.37;100.00;100371.53;5105501;28;20040;-70
2022/09/20 02:12:21;;;;;;;5.70;3.35;;;;;;;10.44;100.00;100374.53;5104022;28;20099;-70
2022/09/20 02:15:13;;;;;;;6.25;3.40;;;;;;;10.39;100.00;100374.09;5105465;28;20104;-70
2022/09/20 02:18:08;;;;;;;7.45;3.60;;;;;;;10.39;100.00;100379.44;5074455;28;20165;-70
2022/09/20 02:20:42;;;;;;;;;;;;;;;10.40;100.00;100373.09;5105951;28;20028;-70
2022/09/20 02:23:21;;;;;;;9.73;4.05;;;;;;;10.38;100.00;100375.06;5105871;28;19918;-70
2022/09/20 02:26:05;;;;;;;7.10;3.58;;;;;;;10.42;100.00;100380.03;5104353;28;20031;-70
2022/09/20 02:28:48;;;;;;;8.93;3.83;;;;;;;10.38;100.00;100381.28;5104563;28;21871;-70
2022/09/20 02:31:36;;;;;;;6.78;3.38;;;;;;;10.43;100.00;100375.50;5105803;28;20024;-70
2022/09/20 02:34:23;;;;;;;8.13;3.65;;;;;;;10.38;100.00;100385.81;5103063;28;20027;-70
2022/09/20 02:37:18;;;;;;;4.57;3.13;;;;;;;10.31;100.00;100376.56;5102875;28;20035;-70
2022/09/20 02:39:56;;;;;;;5.55;3.15;;;;;;;10.29;100.00;100390.09;5103007;28;20047;-69
2022/09/20 02:42:33;;;;;;;7.28;2.90;;;;;;;10.24;100.00;100389.66;5105412;28;20035;-70
2022/09/20 02:45:10;;;;;;;6.95;3.70;;;;;;;10.27;100.00;100385.84;5104061;28;20056;-70
2022/09/20 02:47:42;;;;;;;10.18;3.72;;;;;;;10.37;100.00;100384.09;5105281;28;20028;-69
2022/09/20 02:50:41;;;;;;;7.03;3.58;;;;;;;10.33;100.00;100391.56;5105399;28;20027;-70
2022/09/20 02:53:13;;;;;;;5.03;2.33;;;;;;;10.29;100.00;100379.38;5105309;28;20019;-70
2022/09/20 02:55:57;;;;;;;8.85;3.83;;;;;;;10.37;100.00;100390.31;5104215;28;20032;-70
2022/09/20 02:58:50;;;;;;;8.40;2.88;;;;;;;10.39;100.00;100391.03;5103648;28;20028;-70
2022/09/20 03:01:21;;;;;;;7.78;3.15;;;;;;;10.37;100.00;100398.34;5102271;28;20467;-67
2022/09/20 03:03:58;;;;;;;4.50;2.88;;;;;;;10.30;100.00;100373.06;5104094;28;20035;-67
2022/09/20 03:06:23;;;;;;;5.22;2.72;;;;;;;10.34;100.00;100389.72;5102470;28;20386;-67
2022/09/20 03:09:06;;;;;;;4.57;2.70;;;;;;;10.31;100.00;100393.50;5103545;28;20088;-66
2022/09/20 03:11:43;;;;;;;6.55;2.90;;;;;;;10.29;100.00;100395.44;5101899;28;20051;-66
2022/09/20 03:14:22;;;;;;;7.35;3.08;;;;;;;10.35;100.00;100388.75;5103570;28;20038;-70
2022/09/20 03:17:05;;;;;;;3.78;2.70;;;;;;;10.30;100.00;100394.50;5103143;28;20024;-67
2022/09/20 03:20:00;;;;;;;4.53;2.43;;;;;;;10.29;100.00;100382.06;5104267;28;20035;-70
2022/09/20 03:22:45;;;;;;;6.78;2.70;;;;;;;10.24;100.00;100386.97;5104447;28;20038;-70
2022/09/20 03:25:29;;;;;;;3.03;1.90;;;;;;;10.38;100.00;100385.81;5103707;28;20056;-70
2022/09/20 03:28:10;;;;;;;4.72;2.35;;;;;;;10.38;100.00;100386.63;5103352;28;20085;-71
2022/09/20 03:30:51;;;;;;;4.47;2.50;;;;;;;10.34;100.00;100382.53;5105082;28;20031;-70
2022/09/20 03:33:35;;;;;;;7.13;2.03;;;;;;;10.45;100.00;100381.59;5104267;28;20475;-71
2022/09/20 03:36:12;;;;;;;3.92;1.98;;;;;;;10.37;100.00;100393.00;5102639;28;20386;-70
2022/09/20 03:38:53;;;;;;;4.45;2.58;;;;;;;10.33;100.00;100382.66;5103132;28;20028;-71
2022/09/20 03:41:48;;;;;;;3.97;2.30;;;;;;;10.20;100.00;100382.00;5102882;28;20019;-70
2022/09/20 03:44:35;;;;;;;3.05;2.33;;;;;;;10.22;100.00;100388.09;5104123;28;20451;-70
2022/09/20 03:47:31;;;;;;;5.88;2.10;;;;;;;10.16;100.00;100385.94;5102049;28;20031;-71
2022/09/20 03:50:17;;;;;;;5.03;2.40;;;;;;;10.17;100.00;100395.66;5081800;28;20590;-67
2022/09/20 03:53:13;;;;;;;6.90;2.45;;;;;;;10.20;100.00;100387.38;5102703;28;20019;-70
2022/09/20 03:56:05;;;;;;;2.78;2.30;;;;;;;10.27;100.00;100389.41;5104253;28;20028;-70
2022/09/20 03:58:44;;;;;;;4.80;2.42;;;;;;;10.30;100.00;100394.50;5081130;28;20058;-70
2022/09/20 04:01:37;;;;;;;3.85;2.00;;;;;;;10.15;100.00;100392.25;5104627;28;20026;-71
2022/09/20 04:04:26;;;;;;;3.45;1.92;;;;;;;10.24;100.00;100402.19;5101772;28;20027;-70
2022/09/20 04:07:03;;;;;;;1.88;1.77;;;;;;;10.24;100.00;100402.19;5097256;28;20494;-70
2022/09/20 04:10:03;;;;;;;2.72;1.75;;;;;;;10.24;100.00;100397.69;5102490;28;20031;-70
2022/09/20 04:12:29;;;;;;;4.72;2.83;;;;;;;10.25;100.00;100394.03;5102707;28;20082;-70
2022/09/20 04:15:12;;;;;;;5.65;2.08;;;;;;;10.16;100.00;100383.25;5101754;28;20130;-71
2022/09/20 04:17:56;;;;;;;3.83;2.10;;;;;;;10.36;100.00;100399.34;5102157;28;20459;-71
2022/09/20 04:20:46;;;;;;;5.85;2.45;;;;;;;10.38;100.00;100401.88;5102267;28;21825;-71
2022/09/20 04:23:45;;;;;;;7.20;2.63;;;;;;;10.33;100.00;100412.13;5105680;28;20035;-71
2022/09/20 04:26:14;;;;;;;3.38;2.00;;;;;;;10.29;100.00;100411.53;5108423;28;20098;-71
2022/09/20 04:28:53;;;;;;;4.72;2.50;;;;;;;10.41;100.00;100402.47;5105040;28;20656;-69
2022/09/20 04:31:41;;;;;;;3.90;2.22;;;;;;;10.39;100.00;100411.63;5106951;28;20093;-70
2022/09/20 04:34:18;;;;;;;4.50;2.20;;;;;;;10.40;100.00;100413.31;5106721;28;20019;-68
2022/09/20 04:37:01;;;;;;;4.20;2.55;;;;;;;10.54;100.00;100412.97;5106771;28;20027;-66
2022/09/20 04:39:44;;;;;;;3.58;2.83;;;;;;;10.58;100.00;100422.47;5106796;28;20035;-66
2022/09/20 04:42:28;;;;;;;3.83;1.98;;;;;;;10.52;100.00;100417.63;5106551;28;20497;-66
2022/09/20 04:45:28;;;;;;;3.95;2.78;;;;;;;10.35;100.00;100402.97;5106185;28;20486;-67
2022/09/20 04:47:54;;;;;;;7.05;2.60;;;;;;;10.47;100.00;100415.34;5105923;28;20115;-66
2022/09/20 04:50:34;;;;;;;5.68;3.10;;;;;;;10.46;100.00;100415.47;5107244;28;20119;-66
2022/09/20 04:53:34;;;;;;;6.97;2.33;;;;;;;10.38;100.00;100428.69;5105409;28;20038;-66
2022/09/20 04:56:02;;;;;;;3.03;2.05;;;;;;;10.35;100.00;100415.56;5106455;28;20027;-67
2022/09/20 04:58:31;;;;;;;2.78;2.15;;;;;;;10.27;100.00;100426.91;5106898;27;20421;-70
2022/09/20 05:01:16;;;;;;;2.97;2.00;;;;;;;10.25;100.00;100431.56;5103107;28;20066;-66
2022/09/20 05:04:09;;;;;;;2.95;2.20;;;;;;;10.22;100.00;100426.44;5106346;28;20027;-66
2022/09/20 05:06:49;;;;;;;3.10;2.10;;;;;;;10.24;100.00;100429.00;5106329;28;20502;-67
2022/09/20 05:09:24;;;;;;;5.55;2.95;;;;;;;10.24;100.00;100431.69;5106079;28;20023;-67
2022/09/20 05:12:25;;;;;;;4.38;2.25;;;;;;;10.25;100.00;100433.41;5104534;28;20487;-67
2022/09/20 05:15:33;;;;;;;4.85;2.20;;;;;;;10.26;100.00;100438.63;5071681;28;20449;-65
2022/09/20 05:18:46;;;;;;;4.10;1.80;;;;;;;10.28;100.00;100431.28;5087732;28;20067;-66
2022/09/20 05:21:42;;;;;;;3.67;1.92;;;;;;;10.33;100.00;100415.69;5090963;28;21518;-66
2022/09/20 05:24:55;;;;;;;3.05;2.30;;;;;;;10.52;100.00;100447.13;5092672;28;20431;-66
2022/09/20 05:27:46;;;;;;;2.15;1.70;;;;;;;10.63;100.00;100434.50;5098322;28;20789;-66
2022/09/20 05:30:40;;;;;;;3.65;1.67;;;;;;;10.62;100.00;100418.53;5103470;28;20044;-65
2022/09/20 05:33:50;;;;;;;5.43;2.13;;;;;;;10.60;100.00;100436.56;5105915;28;20031;-66
2022/09/20 05:36:42;;;;;;;5.13;2.60;;;;;;;10.67;100.00;100445.78;5107077;28;20028;-66
2022/09/20 05:39:39;;;;;;;2.20;1.90;;;;;;;10.80;100.00;100443.78;5106504;28;20080;-66
2022/09/20 05:42:19;;;;;;;3.10;1.95;;;;;;;10.93;100.00;100439.88;5105792;28;20020;-66
2022/09/20 05:45:20;;;;;;;3.58;2.05;;;;;;;10.93;100.00;100439.88;5105579;28;20035;-65
2022/09/20 05:47:54;;;;;;;2.65;2.30;;;;;;;10.92;100.00;100423.91;5105276;28;20332;-65
2022/09/20 05:50:50;;;;;;;5.25;2.30;;;;;;;10.92;100.00;100448.06;5104639;28;20467;-65
2022/09/20 05:53:46;;;;;;;2.38;2.17;;;;;;;11.00;100.00;100434.84;5104321;28;20058;-65
2022/09/20 05:56:21;;;;;;;4.63;2.33;;;;;;;11.07;100.00;100428.78;5103137;28;20529;-64
2022/09/20 05:59:05;;;;;;;2.13;1.80;;;;;;;11.26;100.00;100436.91;5098993;28;20035;-65
2022/09/20 06:01:40;;;;;;;3.30;2.08;;;;;;;11.19;100.00;100440.28;5093946;28;20495;-65
2022/09/20 06:04:16;;;;;;;4.32;2.20;;;;;;;11.42;99.52;100445.28;5101475;28;20042;-65
2022/09/20 06:06:50;;;;;;;4.18;2.30;;;;;;;11.53;98.56;100442.50;5104646;28;20371;-68
2022/09/20 06:09:16;;;;;;;;;;;;;;;11.68;97.36;100440.31;5104105;28;20027;-68
2022/09/20 06:12:19;;;;;;;2.67;2.03;;;;;;;11.79;96.25;100442.00;5104399;28;19942;-68
2022/09/20 06:15:00;;;;;;;3.08;1.77;;;;;;;11.92;95.71;100439.91;5072167;28;20039;-65
2022/09/20 06:17:39;;;;;;;3.83;2.28;;;;;;;11.97;95.44;100438.53;5102925;28;20031;-65
2022/09/20 06:20:29;;;;;;;3.50;1.85;;;;;;;11.97;95.44;100433.13;5103587;28;20402;-65
2022/09/20 06:22:58;;;;;;;3.50;1.90;;;;;;;12.11;94.08;100437.22;5102956;28;20031;-66
2022/09/20 06:25:33;;;;;;;2.90;1.80;;;;;;;12.19;94.26;100434.69;5104632;28;20562;-65
2022/09/20 06:28:21;;;;;;;5.05;2.38;;;;;;;12.35;94.01;100440.34;5104118;28;20030;-63
2022/09/20 06:30:49;;;;;;;3.40;2.70;;;;;;;12.65;90.97;100438.31;5104581;28;20034;-64
2022/09/20 06:33:16;;;;;;;4.57;1.95;;;;;;;12.69;91.67;100442.41;5104628;28;20046;-64
2022/09/20 06:35:53;;;;;;;1.65;1.52;;;;;;;12.90;88.38;100443.06;5103024;28;20027;-65
2022/09/20 06:41:28;;;;;;;2.92;2.38;;;;;;;13.15;88.44;100436.19;5103198;28;20826;-64
2022/09/20 06:43:58;;;;;;;3.72;1.95;;;;;;;13.37;86.42;100433.13;5103047;28;20089;-64
2022/09/20 06:46:29;;;;;;;4.00;1.92;;;;;;;13.55;83.17;100432.16;5102778;28;20036;-64
2022/09/20 06:48:55;;;;;;;2.53;1.63;;;;;;;13.65;83.48;100424.84;5102937;28;20050;-65
2022/09/20 06:51:22;;;;;;;4.78;2.08;;;;;;;13.83;83.23;100432.97;5102833;28;20039;-65
2022/09/20 06:53:48;;;;;;;3.90;2.25;;;;;;;14.05;80.73;100432.53;5103845;28;20104;-64
2022/09/20 06:56:19;;;;;;;4.45;1.90;;;;;;;14.21;79.69;100438.06;5103694;28;20042;-64
2022/09/20 06:58:45;;;;;;;4.35;1.73;;;;;;;14.25;80.21;100441.34;5103643;28;20110;-65
2022/09/20 07:01:12;;;;;;;3.92;1.83;;;;;;;14.36;79.30;100447.38;5104320;28;20032;-67
2022/09/20 07:03:41;;;;;;;6.38;2.20;;;;;;;14.46;76.94;100422.97;5102795;28;20015;-66
2022/09/20 07:06:08;;;;;;;2.30;1.63;;;;;;;14.71;75.53;100450.00;5104195;28;20037;-66
2022/09/20 07:08:34;;;;;;;2.90;1.60;;;;;;;14.85;75.77;100446.72;5104455;28;20616;-66
2022/09/20 07:11:08;;;;;;;1.83;1.50;;;;;;;14.97;73.93;100442.75;5104002;28;20043;-67
2022/09/20 07:13:35;;;;;;;3.65;1.90;;;;;;;15.00;75.03;100439.72;5103147;28;20028;-67
2022/09/20 07:16:07;;;;;;;5.20;1.70;;;;;;;15.16;74.14;100445.22;5101719;28;20109;-66
2022/09/20 07:18:33;;;;;;;4.53;1.65;;;;;;;15.27;73.68;100444.94;5103310;28;20106;-66
2022/09/20 07:20:59;;;;;;;4.07;2.08;;;;;;;15.50;73.01;100448.78;5103954;28;20091;-65
2022/09/20 07:23:28;;;;;;;2.92;1.85;;;;;;;15.67;70.61;100455.09;5104110;28;20499;-64
2022/09/20 07:25:59;;;;;;;4.78;2.05;;;;;;;15.61;70.20;100445.78;5103006;28;20062;-64
2022/09/20 07:28:30;;;;;;;2.63;1.50;;;;;;;15.62;69.55;100457.47;5104044;28;20076;-64
2022/09/20 07:30:56;;;;;;;5.40;1.70;;;;;;;15.59;71.68;100458.63;5103712;28;20042;-64
2022/09/20 07:33:23;;;;;;;5.25;1.80;;;;;;;15.77;71.89;100463.94;5103825;28;20023;-64
2022/09/20 07:35:53;;;;;;;2.63;1.67;;;;;;;16.06;71.02;100472.47;5104317;28;20103;-64
2022/09/20 07:38:20;;;;;;;3.92;1.80;;;;;;;16.48;66.24;100465.09;5104613;28;20507;-64
2022/09/20 07:41:01;;;;;;;2.05;1.73;;;;;;;16.69;65.82;100451.03;5104068;28;20032;-65
2022/09/20 07:43:29;;;;;;;2.38;1.65;;;;;;;17.09;63.33;100437.44;5106799;27;20506;-64
2022/09/20 07:45:56;;;;;;;2.65;1.50;;;;;;;17.75;62.08;100451.44;5101765;28;20035;-64
2022/09/20 07:48:24;;;;;;;2.92;1.50;;;;;;;18.57;59.68;100453.50;5104949;28;20085;-65
2022/09/20 07:50:55;;;;;;;3.67;1.42;;;;;;;19.08;56.33;100458.06;5104297;28;20051;-64
2022/09/20 07:53:20;;;;;;;5.45;1.50;;;;;;;20.07;53.19;100457.41;5101093;28;20390;-65
2022/09/20 07:56:07;;;;;;;3.70;1.45;;;;;;;20.98;51.27;100465.66;5103624;28;20023;-64
2022/09/20 07:58:34;;;;;;;2.67;1.50;;;;;;;21.75;48.97;100452.75;5103588;28;20024;-64
2022/09/20 08:01:03;;;;;;;7.32;1.60;;;;;;;22.37;47.57;100453.34;5103238;28;20034;-64
2022/09/20 08:03:30;;;;;;;1.45;1.25;;;;;;;23.38;44.35;100451.09;5101170;28;20034;-64
2022/09/20 08:06:00;;;;;;;1.38;1.23;;;;;;;24.29;43.00;100445.28;5102700;28;20072;-64
2022/09/20 08:08:27;;;;;;;1.60;1.30;;;;;;;24.35;42.55;100449.88;5103797;28;20032;-64
2022/09/20 08:11:01;;;;;;;4.85;1.55;;;;;;;25.87;39.91;100451.06;5104392;28;20525;-67
2022/09/20 08:13:28;;;;;;;;;;;;;;;25.11;40.74;100447.00;5104930;28;20063;-67
2022/09/20 08:16:06;;;;;;;3.95;1.38;;;;;;;25.94;38.99;100460.91;5104242;28;19947;-67
2022/09/20 08:18:33;;;;;;;2.42;1.30;;;;;;;25.79;38.41;100456.88;5103263;28;20027;-67
2022/09/20 08:21:07;;;;;;;1.60;1.33;;;;;;;25.18;39.66;100461.50;5104634;28;20118;-67
2022/09/20 08:23:37;;;;;;;2.63;1.27;;;;;;;24.87;40.49;100456.94;5104279;28;20042;-67
2022/09/20 08:26:04;;;;;;;1.48;1.00;;;;;;;24.21;41.73;100456.50;5102109;28;20015;-67
2022/09/20 08:28:30;;;;;;;2.40;1.10;;;;;;;23.81;42.18;100451.41;5102616;28;20022;-67
2022/09/20 08:31:07;;;;;;;2.88;1.40;;;;;;;24.30;41.05;100455.19;5102519;28;20085;-67
2022/09/20 08:33:36;;;;;;;2.22;1.42;;;;;;;23.46;42.26;100455.50;5103682;28;20434;-67
2022/09/20 08:36:02;;;;;;;2.17;1.40;;;;;;;22.68;44.29;100456.41;5103362;28;20037;-66
2022/09/20 08:38:28;;;;;;;1.95;1.20;;;;;;;22.02;46.21;100463.56;5103716;28;20032;-67
2022/09/20 08:41:10;;;;;;;2.78;1.40;;;;;;;21.29;48.39;100462.53;5103496;28;20045;-64
2022/09/20 08:44:11;;;;;;;2.45;1.60;;;;;;;21.67;47.48;100455.63;5104474;28;20034;-65
2022/09/20 08:46:50;;;;;;;4.63;1.65;;;;;;;21.55;47.48;100457.22;5049682;28;20039;-64
2022/09/20 08:49:24;;;;;;;2.83;1.40;;;;;;;21.43;47.70;100462.41;5102688;28;20054;-64
2022/09/20 08:51:50;;;;;;;4.18;1.70;;;;;;;20.78;48.42;100459.19;5103869;28;20076;-65
2022/09/20 08:54:16;;;;;;;2.15;1.40;;;;;;;20.33;49.59;100462.31;5104567;28;20707;-65
2022/09/20 08:56:44;;;;;;;2.88;1.67;;;;;;;19.82;51.76;100458.75;5104568;28;20554;-64
2022/09/20 08:59:16;;;;;;;3.10;1.40;;;;;;;19.57;51.66;100451.94;5104406;28;20059;-64
2022/09/20 09:01:42;;;;;;;2.38;1.30;;;;;;;18.99;53.84;100462.75;5106874;28;20023;-64
2022/09/20 09:04:20;;;;;;;2.20;1.27;;;;;;;18.79;54.52;100469.75;5103875;28;20146;-64
2022/09/20 09:06:47;;;;;;;3.50;1.25;;;;;;;18.92;52.61;100461.81;5103729;28;20343;-65
2022/09/20 09:09:21;;;;;;;2.15;1.20;;;;;;;18.82;52.51;100460.38;5108019;28;20543;-65
2022/09/20 09:11:48;;;;;;;2.95;1.10;;;;;;;18.56;52.96;100473.50;5107191;28;20122;-67
2022/09/20 09:17:11;;;;;;;2.35;1.15;;;;;;;18.21;54.30;100457.81;5112642;28;20130;-67
2022/09/20 09:19:54;;;;;;;3.85;1.02;;;;;;;18.08;54.48;100443.97;5107026;28;20023;-67
2022/09/20 09:22:38;;;;;;;1.67;1.20;;;;;;;17.95;55.85;100452.69;5106541;28;20031;-67
2022/09/20 09:25:24;;;;;;;3.15;1.30;;;;;;;17.99;56.97;100445.88;5106315;27;20039;-65
2022/09/20 09:27:51;;;;;;;1.98;0.80;;;;;;;17.81;57.81;100453.47;5106752;28;20036;-64
2022/09/20 09:30:26;;;;;;;2.38;1.30;;;;;;;17.81;57.37;100459.75;5105883;28;20062;-64
2022/09/20 09:33:14;;;;;;;2.70;1.27;;;;;;;18.10;55.76;100453.63;5106923;28;20039;-66
2022/09/20 09:35:39;;;;;;;2.65;1.38;;;;;;;17.87;56.95;100458.19;5105892;28;20031;-66
2022/09/20 09:38:16;;;;;;;2.90;1.35;;;;;;;18.06;55.38;100455.03;5106745;28;20039;-66
2022/09/20 09:40:50;;;;;;;2.03;1.23;;;;;;;18.00;55.84;100459.28;5107617;28;20032;-66
2022/09/20 09:43:22;;;;;;;1.77;1.38;;;;;;;17.85;57.03;100458.34;5105690;28;20158;-66
2022/09/20 09:45:48;;;;;;;3.25;1.38;;;;;;;18.02;56.01;100446.38;5106499;28;20118;-67
2022/09/20 09:48:24;;;;;;;4.38;0.90;;;;;;;17.87;56.98;100459.00;5107401;28;20099;-67
2022/09/20 09:51:18;;;;;;;2.38;1.05;;;;;;;17.86;56.51;100462.75;5107152;28;20076;-67
2022/09/20 09:53:47;;;;;;;1.98;1.20;;;;;;;17.81;57.08;100438.03;5107023;28;20051;-65
2022/09/20 09:56:34;;;;;;;4.80;1.38;;;;;;;18.22;54.99;100454.06;5104247;28;20023;-64
2022/09/20 09:59:30;;;;;;;1.55;1.20;;;;;;;17.93;55.99;100457.47;5104255;28;20051;-64
2022/09/20 10:02:05;;;;;;;2.05;1.05;;;;;;;18.19;54.72;100449.84;5103554;28;20023;-66
2022/09/20 10:04:53;;;;;;;2.53;1.27;;;;;;;18.13;55.47;100453.28;5105856;28;20483;-66
2022/09/20 10:07:30;;;;;;;1.80;1.13;;;;;;;17.99;56.31;100457.59;5103744;28;20036;-64
2022/09/20 10:10:28;;;;;;;3.80;1.00;;;;;;;17.91;55.45;100459.50;5105363;28;20055;-64
2022/09/20 10:13:15;;;;;;;2.47;1.13;;;;;;;17.77;55.67;100458.38;5104651;28;20055;-64
2022/09/20 10:16:03;;;;;;;2.40;1.17;;;;;;;17.86;55.35;100456.47;5105467;28;20190;-64
2022/09/20 10:18:44;;;;;;;1.38;1.00;;;;;;;17.84;55.26;100455.81;5104143;28;20132;-64
2022/09/20 10:21:23;;;;;;;3.63;1.17;;;;;;;18.00;54.26;100458.44;5105565;28;20050;-65
2022/09/20 10:24:31;;;;;;;1.02;0.68;;;;;;;17.75;54.79;100459.59;5104705;28;20032;-64
2022/09/20 10:27:08;;;;;;;2.22;1.25;;;;;;;17.70;55.43;100456.56;5105022;28;20028;-67
2022/09/20 10:29:52;;;;;;;2.50;1.13;;;;;;;17.68;55.77;100453.19;5103892;28;20131;-66
2022/09/20 10:32:35;;;;;;;3.17;1.00;;;;;;;17.81;54.88;100454.31;5105089;28;20042;-66
2022/09/20 10:35:03;;;;;;;1.40;0.85;;;;;;;18.00;54.38;100451.13;5104964;28;20070;-66
2022/09/20 10:37:35;;;;;;;2.00;1.00;;;;;;;18.06;53.53;100457.72;5106660;28;20042;-66
2022/09/20 10:43:33;;;;;;;2.67;1.50;;;;;;;18.14;53.52;100460.38;5104207;28;20555;-66
2022/09/20 10:46:17;;;;;;;5.20;1.48;;;;;;;18.14;53.29;100460.38;5105075;28;20396;-67
2022/09/20 10:48:52;;;;;;;2.42;1.10;;;;;;;18.02;53.62;100464.53;5105400;28;20416;-67
2022/09/20 10:51:31;;;;;;;3.15;1.33;;;;;;;17.94;54.47;100457.28;5106269;28;20027;-64
2022/09/20 10:53:57;;;;;;;1.23;0.93;;;;;;;18.01;53.87;100455.56;5105486;28;20027;-66
2022/09/20 10:57:25;;;;;;;1.95;0.80;;;;;;;17.89;54.40;100453.41;5104108;28;20085;-65
2022/09/20 11:00:17;;;;;;;1.63;0.90;;;;;;;17.79;54.56;100455.50;4999385;28;20045;-67
2022/09/20 11:02:49;;;;;;;1.33;0.80;;;;;;;17.74;53.45;100457.91;5103754;28;20596;-66
2022/09/20 11:05:36;;;;;;;1.52;0.82;;;;;;;17.58;54.22;100460.69;5105586;28;20636;-66
2022/09/20 11:08:21;;;;;;;1.48;0.82;;;;;;;17.50;55.29;100460.72;5105112;28;20020;-64
2022/09/20 11:11:12;;;;;;;1.27;0.93;;;;;;;17.52;55.08;100453.25;5105722;28;20071;-64
2022/09/20 11:13:44;;;;;;;2.15;0.80;;;;;;;17.53;56.04;100449.50;5106845;28;20037;-65
2022/09/20 11:16:37;;;;;;;1.27;0.77;;;;;;;17.56;55.12;100450.03;5106808;28;20031;-65
2022/09/20 11:19:31;;;;;;;0.80;0.70;;;;;;;17.56;55.02;100447.31;5104547;28;20024;-66
2022/09/20 11:21:57;;;;;;;;;;;;;;;17.54;55.35;100451.22;5107111;28;20062;-65
2022/09/20 11:25:11;;;;;;;1.38;0.90;;;;;;;17.50;55.74;100456.16;5104931;28;19950;-64
2022/09/20 11:27:43;;;;;;;3.08;1.05;;;;;;;17.67;55.62;100454.22;5097373;28;20491;-66
2022/09/20 11:30:20;;;;;;;1.95;0.73;;;;;;;17.39;56.26;100423.97;5106825;28;20526;-67
2022/09/20 11:32:49;;;;;;;1.27;0.80;;;;;;;17.42;55.36;100441.75;5106612;28;20034;-65
2022/09/20 11:35:26;;;;;;;2.05;0.80;;;;;;;17.40;55.77;100435.63;5105502;28;20032;-66
2022/09/20 11:38:01;;;;;;;1.58;0.90;;;;;;;17.41;55.76;100418.38;5103530;28;20029;-66
2022/09/20 11:40:32;;;;;;;1.85;0.95;;;;;;;17.44;55.75;100426.16;5104054;28;20107;-66
2022/09/20 11:43:01;;;;;;;1.83;1.00;;;;;;;17.48;54.98;100424.81;5104198;28;20522;-66
2022/09/20 11:45:28;;;;;;;3.28;0.90;;;;;;;17.43;55.78;100416.34;5103946;28;20062;-65
2022/09/20 11:48:01;;;;;;;1.17;0.85;;;;;;;17.46;54.61;100422.25;5104205;28;20509;-67
2022/09/20 11:50:55;;;;;;;2.03;0.60;;;;;;;17.45;54.63;100419.72;5102145;28;20069;-66
2022/09/20 11:53:58;;;;;;;2.17;1.00;;;;;;;17.44;54.45;100418.03;5102683;28;20030;-65
2022/09/20 11:56:26;;;;;;;2.58;0.70;;;;;;;17.48;54.93;100425.63;5101820;28;20532;-66
2022/09/20 11:59:06;;;;;;;0.80;0.70;;;;;;;17.48;55.08;100430.22;5102386;28;20450;-66
2022/09/20 12:01:37;;;;;;;1.27;0.80;;;;;;;17.54;54.27;100411.38;5103949;28;20650;-66
2022/09/20 12:04:26;;;;;;;1.70;0.75;;;;;;;17.47;55.32;100412.25;5102522;28;20028;-66
2022/09/20 12:07:21;;;;;;;0.70;0.70;;;;;;;17.47;54.93;100414.97;5103594;28;20138;-66
2022/09/20 12:10:03;;;;;;;1.15;0.60;;;;;;;17.81;52.92;100412.75;5100674;28;20050;-66
2022/09/20 12:12:40;;;;;;;0.70;0.60;;;;;;;17.76;52.89;100407.88;5103136;28;20043;-65
2022/09/20 12:15:23;;;;;;;2.35;0.90;;;;;;;17.56;54.11;100384.06;5103544;28;20486;-66
2022/09/20 12:17:51;;;;;;;2.00;0.85;;;;;;;17.56;55.30;100411.19;5101692;28;20436;-66
2022/09/20 12:20:31;;;;;;;2.42;0.93;;;;;;;17.55;55.22;100412.22;5103508;28;20031;-66
2022/09/20 12:23:34;;;;;;;0.80;0.70;;;;;;;17.55;54.33;100406.78;5103525;28;20390;-66